sensor_id;sensor_type;location;lat;lon;timestamp;P1;P2;P0
74430;PMS7003;62863;52.062;23.764;2023-06-22T00:02:16;32.5;28;18.3
74430;PMS7003;62863;52.062;23.764;2023-06-22T00:07:28;32;27.3;17.3
74430;PMS7003;62863;52.062;23.764;2023-06-22T00:11:54;29.3;26.5;17.5
74430;PMS7003;62863;52.062;23.764;2023-06-22T00:17:22;41;33.8;21.4
74430;PMS7003;62863;52.062;23.764;2023-06-22T00:22:00;36;31;19.5
74430;PMS7003;62863;52.062;23.764;2023-06-22T00:26:52;31.5;29;19
74430;PMS7003;62863;52.062;23.764;2023-06-22T00:31:52;27.4;25.2;16.8
74430;PMS7003;62863;52.062;23.764;2023-06-22T00:37:26;26.3;23;16
74430;PMS7003;62863;52.062;23.764;2023-06-22T00:42:08;26.4;22.4;16.2
74430;PMS7003;62863;52.062;23.764;2023-06-22T00:47:22;29;26;16.8
74430;PMS7003;62863;52.062;23.764;2023-06-22T00:52:36;29;24.8;17.3
74430;PMS7003;62863;52.062;23.764;2023-06-22T00:57:28;26.7;22.3;16
74430;PMS7003;62863;52.062;23.764;2023-06-22T01:01:52;26.4;22.4;15.6
74430;PMS7003;62863;52.062;23.764;2023-06-22T01:07:27;26.8;23;17
74430;PMS7003;62863;52.062;23.764;2023-06-22T01:12:38;26.8;23.4;16.6
74430;PMS7003;62863;52.062;23.764;2023-06-22T01:17:34;27.8;24.3;15.8
74430;PMS7003;62863;52.062;23.764;2023-06-22T01:22:43;26;23;17
74430;PMS7003;62863;52.062;23.764;2023-06-22T01:27:44;29.2;24.2;17
74430;PMS7003;62863;52.062;23.764;2023-06-22T01:32:02;25.2;23.4;16.2
74430;PMS7003;62863;52.062;23.764;2023-06-22T01:37:02;28.2;25.8;17.6
74430;PMS7003;62863;52.062;23.764;2023-06-22T01:42:04;28.7;25.7;18.7
74430;PMS7003;62863;52.062;23.764;2023-06-22T01:47:40;26;22.5;16.5
74430;PMS7003;62863;52.062;23.764;2023-06-22T01:52:28;31.2;27.4;17.8
74430;PMS7003;62863;52.062;23.764;2023-06-22T01:57:30;29.3;23;16.8
74430;PMS7003;62863;52.062;23.764;2023-06-22T02:02:04;30.2;27.2;18.4
74430;PMS7003;62863;52.062;23.764;2023-06-22T02:06:54;29;25.3;17.8
74430;PMS7003;62863;52.062;23.764;2023-06-22T02:11:52;29.6;26.2;17.8
74430;PMS7003;62863;52.062;23.764;2023-06-22T02:17:07;29.5;27.5;19.5
74430;PMS7003;62863;52.062;23.764;2023-06-22T02:22:40;32.4;28.8;19
74430;PMS7003;62863;52.062;23.764;2023-06-22T02:27:04;30;26.6;17.6
74430;PMS7003;62863;52.062;23.764;2023-06-22T02:32:28;31;27.6;18.8
74430;PMS7003;62863;52.062;23.764;2023-06-22T02:37:02;38.8;32.3;20.8
74430;PMS7003;62863;52.062;23.764;2023-06-22T02:41:52;43;36;24
74430;PMS7003;62863;52.062;23.764;2023-06-22T02:47:38;46.8;36;23.3
74430;PMS7003;62863;52.062;23.764;2023-06-22T02:52:06;32.8;27.4;18
74430;PMS7003;62863;52.062;23.764;2023-06-22T02:57:24;28.7;24;17
74430;PMS7003;62863;52.062;23.764;2023-06-22T03:02:14;23.3;22;15.5
74430;PMS7003;62863;52.062;23.764;2023-06-22T03:07:40;23.7;20.7;14.7
74430;PMS7003;62863;52.062;23.764;2023-06-22T03:11:52;41.6;34.2;21
74430;PMS7003;62863;52.062;23.764;2023-06-22T03:16:52;45;35.5;23
74430;PMS7003;62863;52.062;23.764;2023-06-22T03:22:40;32;28.3;19.7
74430;PMS7003;62863;52.062;23.764;2023-06-22T03:27:18;31.6;28.8;19.4
74430;PMS7003;62863;52.062;23.764;2023-06-22T03:32:12;24;23.5;17
74430;PMS7003;62863;52.062;23.764;2023-06-22T03:37:14;27.7;25.7;17
74430;PMS7003;62863;52.062;23.764;2023-06-22T03:42:40;34.3;31.3;20
74430;PMS7003;62863;52.062;23.764;2023-06-22T03:46:52;39.4;32.8;20.8
74430;PMS7003;62863;52.062;23.764;2023-06-22T03:52:02;41.3;33.3;21.3
74430;PMS7003;62863;52.062;23.764;2023-06-22T03:57:38;40;34.5;21.5
74430;PMS7003;62863;52.062;23.764;2023-06-22T04:02:14;39.3;34.5;22.8
74430;PMS7003;62863;52.062;23.764;2023-06-22T04:07:02;31.4;27;18.2
74430;PMS7003;62863;52.062;23.764;2023-06-22T04:12:14;31.3;27;18.3
74430;PMS7003;62863;52.062;23.764;2023-06-22T04:17:22;38;32;20.8
74430;PMS7003;62863;52.062;23.764;2023-06-22T04:22:06;39;32;20.2
74430;PMS7003;62863;52.062;23.764;2023-06-22T04:37:22;29;26;19
74430;PMS7003;62863;52.062;23.764;2023-06-22T04:42:02;28.5;25.5;17
74430;PMS7003;62863;52.062;23.764;2023-06-22T04:47:14;33.3;26.8;17.5
74430;PMS7003;62863;52.062;23.764;2023-06-22T04:52:04;34;30;20
74430;PMS7003;62863;52.062;23.764;2023-06-22T04:57:02;42;33.3;20.7
74430;PMS7003;62863;52.062;23.764;2023-06-22T05:02:18;42.8;33;21
74430;PMS7003;62863;52.062;23.764;2023-06-22T05:07:14;35;29;19.5
74430;PMS7003;62863;52.062;23.764;2023-06-22T06:42:28;12;12;12
74430;PMS7003;62863;52.062;23.764;2023-06-22T06:47:38;21;21;14
74430;PMS7003;62863;52.062;23.764;2023-06-22T07:57:10;20;19;13
74430;PMS7003;62863;52.062;23.764;2023-06-22T08:12:02;20;19;13
74430;PMS7003;62863;52.062;23.764;2023-06-22T08:16:52;22.4;20.4;15.2
74430;PMS7003;62863;52.062;23.764;2023-06-22T08:42:06;24;24;17
74430;PMS7003;62863;52.062;23.764;2023-06-22T08:47:02;25;24.5;15.5
74430;PMS7003;62863;52.062;23.764;2023-06-22T09:12:14;25;24.5;15.5
74430;PMS7003;62863;52.062;23.764;2023-06-22T09:17:22;21.5;20;14
74430;PMS7003;62863;52.062;23.764;2023-06-22T09:57:00;27;24;18
74430;PMS7003;62863;52.062;23.764;2023-06-22T10:07:10;16.5;16.5;12
74430;PMS7003;62863;52.062;23.764;2023-06-22T10:32:42;20;18;13
74430;PMS7003;62863;52.062;23.764;2023-06-22T11:17:26;21.5;20;12.5
74430;PMS7003;62863;52.062;23.764;2023-06-22T12:41:52;21.5;20;12.5
74430;PMS7003;62863;52.062;23.764;2023-06-22T12:47:40;28.5;24.8;16.8
74430;PMS7003;62863;52.062;23.764;2023-06-22T12:52:24;28;24;17
74430;PMS7003;62863;52.062;23.764;2023-06-22T12:56:52;26.5;23.5;16
74430;PMS7003;62863;52.062;23.764;2023-06-22T13:07:16;22;20.5;14
74430;PMS7003;62863;52.062;23.764;2023-06-22T13:11:52;23.3;20.5;14.8
74430;PMS7003;62863;52.062;23.764;2023-06-22T13:17:16;21.5;20;14
74430;PMS7003;62863;52.062;23.764;2023-06-22T13:22:40;23.7;21;15.3
74430;PMS7003;62863;52.062;23.764;2023-06-22T13:27:38;23;21.7;16
74430;PMS7003;62863;52.062;23.764;2023-06-22T13:32:10;23.4;21.6;14.6
74430;PMS7003;62863;52.062;23.764;2023-06-22T13:37:04;23.3;23;15.3
74430;PMS7003;62863;52.062;23.764;2023-06-22T13:41:52;25;21.7;15.3
74430;PMS7003;62863;52.062;23.764;2023-06-22T13:52:14;24;22;15
74430;PMS7003;62863;52.062;23.764;2023-06-22T14:02:25;19;18;11
74430;PMS7003;62863;52.062;23.764;2023-06-22T14:37:24;15.5;13.5;9.5
74430;PMS7003;62863;52.062;23.764;2023-06-22T14:42:40;15.4;14.4;10.2
74430;PMS7003;62863;52.062;23.764;2023-06-22T14:47:29;15.8;13.8;9.8
74430;PMS7003;62863;52.062;23.764;2023-06-22T14:52:05;14.8;13.8;10.2
74430;PMS7003;62863;52.062;23.764;2023-06-22T14:57:30;14.6;12.4;8.8
74430;PMS7003;62863;52.062;23.764;2023-06-22T15:02:38;18.3;16;11
74430;PMS7003;62863;52.062;23.764;2023-06-22T15:07:40;21;20;13.5
74430;PMS7003;62863;52.062;23.764;2023-06-22T15:12:40;18;17;14
74430;PMS7003;62863;52.062;23.764;2023-06-22T15:17:40;21;19;13.3
74430;PMS7003;62863;52.062;23.764;2023-06-22T15:22:08;26;26;16
74430;PMS7003;62863;52.062;23.764;2023-06-22T15:26:52;23;23;17
74430;PMS7003;62863;52.062;23.764;2023-06-22T15:37:38;29.5;25.5;18.5
74430;PMS7003;62863;52.062;23.764;2023-06-22T15:56:52;25.7;24.7;16.3
74430;PMS7003;62863;52.062;23.764;2023-06-22T16:02:00;24.7;23.3;14.7
74430;PMS7003;62863;52.062;23.764;2023-06-22T16:07:16;26.3;23.8;16.5
74430;PMS7003;62863;52.062;23.764;2023-06-22T16:12:41;25;22.3;17
74430;PMS7003;62863;52.062;23.764;2023-06-22T16:17:26;26.8;25;16.8
74430;PMS7003;62863;52.062;23.764;2023-06-22T16:22:38;28.5;25.5;17.8
74430;PMS7003;62863;52.062;23.764;2023-06-22T16:26:52;26.8;24.4;17
74430;PMS7003;62863;52.062;23.764;2023-06-22T16:32:05;28;25.4;17.4
74430;PMS7003;62863;52.062;23.764;2023-06-22T16:37:24;30;24.5;16.5
74430;PMS7003;62863;52.062;23.764;2023-06-22T16:42:16;28.6;25.4;17.6
74430;PMS7003;62863;52.062;23.764;2023-06-22T16:47:10;26.6;24.6;17.2
74430;PMS7003;62863;52.062;23.764;2023-06-22T16:52:14;26.4;22.8;15.6
74430;PMS7003;62863;52.062;23.764;2023-06-22T16:57:41;28.3;25.3;17
74430;PMS7003;62863;52.062;23.764;2023-06-22T17:02:15;25.2;22.8;16.4
74430;PMS7003;62863;52.062;23.764;2023-06-22T17:07:07;25.8;23.8;16.3
74430;PMS7003;62863;52.062;23.764;2023-06-22T17:12:26;25.7;22.3;16
74430;PMS7003;62863;52.062;23.764;2023-06-22T17:17:03;28;24.3;16
74430;PMS7003;62863;52.062;23.764;2023-06-22T17:22:08;24.4;22.6;16
74430;PMS7003;62863;52.062;23.764;2023-06-22T17:27:03;24.8;22;16.5
74430;PMS7003;62863;52.062;23.764;2023-06-22T17:32:24;29.4;25.8;17.6
74430;PMS7003;62863;52.062;23.764;2023-06-22T17:37:06;26;23.3;17.3
74430;PMS7003;62863;52.062;23.764;2023-06-22T17:41:53;28.3;25.7;17
74430;PMS7003;62863;52.062;23.764;2023-06-22T17:47:37;29;25.3;18.3
74430;PMS7003;62863;52.062;23.764;2023-06-22T17:52:26;30.5;26.8;18
74430;PMS7003;62863;52.062;23.764;2023-06-22T17:57:14;27.2;24.8;17.4
74430;PMS7003;62863;52.062;23.764;2023-06-22T18:02:28;28.6;26.8;18.4
74430;PMS7003;62863;52.062;23.764;2023-06-22T18:07:12;32;27.4;18.6
74430;PMS7003;62863;52.062;23.764;2023-06-22T18:11:52;32;29;19
74430;PMS7003;62863;52.062;23.764;2023-06-22T18:16:52;32.7;29;19.7
74430;PMS7003;62863;52.062;23.764;2023-06-22T18:22:28;32.4;29.4;19.4
74430;PMS7003;62863;52.062;23.764;2023-06-22T18:27:23;32.2;27.6;18.8
74430;PMS7003;62863;52.062;23.764;2023-06-22T18:32:23;34.8;29.6;19.2
74430;PMS7003;62863;52.062;23.764;2023-06-22T18:37:13;37.4;31.4;20
74430;PMS7003;62863;52.062;23.764;2023-06-22T18:42:14;35.6;30.2;20.2
74430;PMS7003;62863;52.062;23.764;2023-06-22T18:47:01;38.2;31.6;20.8
74430;PMS7003;62863;52.062;23.764;2023-06-22T18:52:15;35.6;31;20.4
74430;PMS7003;62863;52.062;23.764;2023-06-22T18:57:01;34.2;30.4;20.4
74430;PMS7003;62863;52.062;23.764;2023-06-22T19:02:57;35.2;29.4;18.8
74430;PMS7003;62863;52.062;23.764;2023-06-22T19:07:55;34.4;29.2;20
74430;PMS7003;62863;52.062;23.764;2023-06-22T19:12:27;37;31.2;20.2
74430;PMS7003;62863;52.062;23.764;2023-06-22T19:17:05;38.5;31.3;21
74430;PMS7003;62863;52.062;23.764;2023-06-22T19:22:42;40.2;32.4;20.8
74430;PMS7003;62863;52.062;23.764;2023-06-22T19:27:35;36.8;31.6;21.6
74430;PMS7003;62863;52.062;23.764;2023-06-22T19:32:35;36;30.8;21
74430;PMS7003;62863;52.062;23.764;2023-06-22T19:37:35;36;30.4;20.4
74430;PMS7003;62863;52.062;23.764;2023-06-22T19:42:35;36.8;31.6;20.8
74430;PMS7003;62863;52.062;23.764;2023-06-22T19:47:01;35.6;31.2;21.4
74430;PMS7003;62863;52.062;23.764;2023-06-22T19:52:05;38.4;32.2;21
74430;PMS7003;62863;52.062;23.764;2023-06-22T19:57:27;38.5;32.3;22
74430;PMS7003;62863;52.062;23.764;2023-06-22T20:02:35;37.3;30;20.5
74430;PMS7003;62863;52.062;23.764;2023-06-22T20:07:11;31.8;28.2;18.4
74430;PMS7003;62863;52.062;23.764;2023-06-22T20:12:27;33;26;18
74430;PMS7003;62863;52.062;23.764;2023-06-22T20:17:39;30.8;27.6;18.2
74430;PMS7003;62863;52.062;23.764;2023-06-22T20:22:15;33.3;29.3;19.3
74430;PMS7003;62863;52.062;23.764;2023-06-22T20:27:01;34.5;30;20.8
74430;PMS7003;62863;52.062;23.764;2023-06-22T20:32:13;42.8;33.8;21.8
74430;PMS7003;62863;52.062;23.764;2023-06-22T20:36:55;34.4;29.8;20.4
74430;PMS7003;62863;52.062;23.764;2023-06-22T20:42:23;38.5;31.8;20.5
74430;PMS7003;62863;52.062;23.764;2023-06-22T20:47:35;39.2;31.4;20.4
74430;PMS7003;62863;52.062;23.764;2023-06-22T20:52:37;34.8;28.4;19.4
74430;PMS7003;62863;52.062;23.764;2023-06-22T20:57:01;33.3;29.3;19.7
74430;PMS7003;62863;52.062;23.764;2023-06-22T21:02:23;36.4;31.4;21
74430;PMS7003;62863;52.062;23.764;2023-06-22T21:06:53;39;33.4;22
74430;PMS7003;62863;52.062;23.764;2023-06-22T21:11:53;36.6;30.8;20.6
74430;PMS7003;62863;52.062;23.764;2023-06-22T21:17:01;32.3;29;20.5
74430;PMS7003;62863;52.062;23.764;2023-06-22T21:22:37;33;29.6;20.8
74430;PMS7003;62863;52.062;23.764;2023-06-22T21:26:53;32.8;30;20.3
74430;PMS7003;62863;52.062;23.764;2023-06-22T21:31:53;35.8;30.4;20.8
74430;PMS7003;62863;52.062;23.764;2023-06-22T21:37:37;37.3;32.3;21.3
74430;PMS7003;62863;52.062;23.764;2023-06-22T21:42:21;34;29.7;20
74430;PMS7003;62863;52.062;23.764;2023-06-22T21:46:53;29.6;26.2;19
74430;PMS7003;62863;52.062;23.764;2023-06-22T21:51:53;30;24;18.3
74430;PMS7003;62863;52.062;23.764;2023-06-22T21:57:23;29.7;25.7;16.3
74430;PMS7003;62863;52.062;23.764;2023-06-22T22:02:11;30;26.3;17.8
74430;PMS7003;62863;52.062;23.764;2023-06-22T22:07:01;32;27;18.8
74430;PMS7003;62863;52.062;23.764;2023-06-22T22:12:37;28;23.8;16.5
74430;PMS7003;62863;52.062;23.764;2023-06-22T22:17:23;25.5;23.5;17.5
74430;PMS7003;62863;52.062;23.764;2023-06-22T22:42:01;26;20.5;14.5
74430;PMS7003;62863;52.062;23.764;2023-06-22T22:47:27;21.3;20.3;15
74430;PMS7003;62863;52.062;23.764;2023-06-22T22:52:15;24;20;14.7
74430;PMS7003;62863;52.062;23.764;2023-06-22T22:57:23;24.7;21.7;15
74430;PMS7003;62863;52.062;23.764;2023-06-22T23:02:13;21.3;19.3;14.7
74430;PMS7003;62863;52.062;23.764;2023-06-22T23:06:53;23;20;14.7
74430;PMS7003;62863;52.062;23.764;2023-06-22T23:22:09;22;21;14
74430;PMS7003;62863;52.062;23.764;2023-06-22T23:47:27;23;18;14
